Time;durP1;ratioP1;P1;durP2;ratioP2;P2;SDS_P1;SDS_P2;PMS_P1;PMS_P2;Temp;Humidity;BMP_temperature;BMP_pressure;BME280_temperature;BME280_humidity;BME280_pressure;Samples;Min_cycle;Max_cycle;Signal;HPM_P1;HPM_P2
2021/12/15 00:01:42;;;;;;;85.40;41.22;;;;;;;;;;5062460;28;20033;-82
2021/12/15 00:04:08;;;;;;;86.10;41.53;;;;;;;;;;5062790;28;20438;-82
2021/12/15 00:06:36;;;;;;;84.00;41.25;;;;;;;;;;5062419;28;20009;-82
2021/12/15 00:09:04;;;;;;;89.65;42.88;;;;;;;;;;5063641;28;20042;-82
2021/12/15 00:11:36;;;;;;;91.15;43.60;;;;;;;;;;5063118;28;20068;-80
2021/12/15 00:14:03;;;;;;;90.13;42.28;;;;;;;;;;5063431;28;20025;-82
2021/12/15 00:16:29;;;;;;;86.43;42.88;;;;;;;;;;5063397;28;20017;-82
2021/12/15 00:18:55;;;;;;;86.18;40.92;;;;;;;;;;5063650;28;20063;-82
2021/12/15 00:21:21;;;;;;;80.97;40.83;;;;;;;;;;5063616;28;20032;-82
2021/12/15 00:23:48;;;;;;;90.32;43.05;;;;;;;;;;5059173;28;20029;-82
2021/12/15 00:26:15;;;;;;;83.15;42.22;;;;;;;;;;5050448;28;20036;-82
2021/12/15 00:28:42;;;;;;;82.10;41.42;;;;;;;;;;5048506;28;20034;-82
2021/12/15 00:31:08;;;;;;;83.47;43.13;;;;;;;;;;5042752;28;20022;-82
2021/12/15 00:33:35;;;;;;;87.85;42.30;;;;;;;;;;5054111;28;20033;-81
2021/12/15 00:36:01;;;;;;;92.35;43.03;;;;;;;;;;5049536;28;20022;-81
2021/12/15 00:38:27;;;;;;;84.22;40.33;;;;;;;;;;5051252;28;20025;-83
2021/12/15 00:40:53;;;;;;;78.97;39.10;;;;;;;;;;5049919;28;20486;-82
2021/12/15 00:43:19;;;;;;;80.22;39.00;;;;;;;;;;5047529;28;20048;-81
2021/12/15 00:45:46;;;;;;;82.10;41.50;;;;;;;;;;5048455;28;20030;-80
2021/12/15 00:48:13;;;;;;;81.25;41.25;;;;;;;;;;5046842;28;20044;-82
2021/12/15 00:50:39;;;;;;;78.20;40.03;;;;;;;;;;5046542;28;20029;-81
2021/12/15 00:53:06;;;;;;;85.35;42.08;;;;;;;;;;5047163;28;20032;-82
2021/12/15 00:55:32;;;;;;;80.30;40.33;;;;;;;;;;5045110;28;20045;-81
2021/12/15 00:57:59;;;;;;;82.93;41.67;;;;;;;;;;5044842;28;20066;-81
2021/12/15 01:00:28;;;;;;;82.20;41.65;;;;;;;;;;5045960;28;20018;-82
2021/12/15 01:02:54;;;;;;;80.00;39.92;;;;;;;;;;5044388;28;20036;-82
2021/12/15 01:05:22;;;;;;;75.10;38.92;;;;;;;;;;5043065;28;20018;-81
2021/12/15 01:07:48;;;;;;;78.55;38.50;;;;;;;;;;5045015;28;20033;-81
2021/12/15 01:10:19;;;;;;;75.28;38.42;;;;;;;;;;5044396;28;20077;-81
2021/12/15 01:14:30;;;;;;;75.35;38.63;;;;;;;;;;5044926;28;20076;-82
2021/12/15 01:21:06;;;;;;;76.85;39.75;;;;;;;;;;5045654;28;20041;-82
2021/12/15 01:23:33;;;;;;;79.25;38.47;;;;;;;;;;5042455;28;20040;-80
2021/12/15 01:26:01;;;;;;;80.88;39.70;;;;;;;;;;5044723;28;20551;-81
2021/12/15 01:28:27;;;;;;;75.65;38.35;;;;;;;;;;5046211;28;20025;-80
2021/12/15 01:30:54;;;;;;;72.15;38.10;;;;;;;;;;5045851;28;20064;-82
2021/12/15 01:33:21;;;;;;;72.20;37.60;;;;;;;;;;5046022;28;20056;-81
2021/12/15 01:35:48;;;;;;;67.70;36.95;;;;;;;;;;5044006;28;20029;-82
2021/12/15 01:38:15;;;;;;;74.95;38.05;;;;;;;;;;5046444;28;20433;-81
2021/12/15 01:40:43;;;;;;;72.55;37.00;;;;;;;;;;5045550;28;20021;-83
2021/12/15 01:43:16;;;;;;;65.43;34.45;;;;;;;;;;5046030;28;20025;-81
2021/12/15 01:48:29;;;;;;;64.10;34.78;;;;;;;;;;5057543;28;20045;-82
2021/12/15 01:50:56;;;;;;;68.95;36.60;;;;;;;;;;5051734;28;20045;-81
2021/12/15 01:53:22;;;;;;;68.45;35.95;;;;;;;;;;5047420;28;20052;-81
2021/12/15 01:56:07;;;;;;;65.50;35.42;;;;;;;;;;5046206;28;20033;-80
2021/12/15 01:58:32;;;;;;;;;;;;;;;;;;5045510;28;20020;-81
2021/12/15 02:01:01;;;;;;;72.10;37.22;;;;;;;;;;5046063;28;19905;-82
2021/12/15 02:03:27;;;;;;;67.78;35.45;;;;;;;;;;5045465;28;20022;-82
2021/12/15 02:05:54;;;;;;;73.22;37.00;;;;;;;;;;5046497;28;20021;-82
2021/12/15 02:08:21;;;;;;;68.53;37.03;;;;;;;;;;5044262;28;20029;-81
2021/12/15 02:10:48;;;;;;;70.72;36.22;;;;;;;;;;5051342;28;20002;-82
2021/12/15 02:13:17;;;;;;;76.65;36.78;;;;;;;;;;5058355;28;20121;-80
2021/12/15 02:15:45;;;;;;;68.45;36.22;;;;;;;;;;5057857;28;20053;-81
2021/12/15 02:18:13;;;;;;;64.97;34.97;;;;;;;;;;5057837;28;20024;-80
2021/12/15 02:20:41;;;;;;;69.88;37.50;;;;;;;;;;5057789;28;20089;-81
2021/12/15 02:23:09;;;;;;;71.85;37.95;;;;;;;;;;5055354;28;20030;-81
2021/12/15 02:25:35;;;;;;;73.72;38.15;;;;;;;;;;5045668;28;20033;-81
2021/12/15 02:28:02;;;;;;;76.20;37.38;;;;;;;;;;5045057;28;20022;-81
2021/12/15 02:33:39;;;;;;;72.20;37.83;;;;;;;;;;5046499;28;20026;-80
2021/12/15 02:38:43;;;;;;;75.50;37.78;;;;;;;;;;5036961;28;20398;-81
2021/12/15 02:41:20;;;;;;;81.88;39.45;;;;;;;;;;5047430;28;20025;-80
2021/12/15 02:43:50;;;;;;;75.68;37.78;;;;;;;;;;5047610;28;20025;-81
2021/12/15 02:46:17;;;;;;;78.20;39.20;;;;;;;;;;5045230;28;20521;-81
2021/12/15 02:48:43;;;;;;;80.35;38.97;;;;;;;;;;5044180;28;20110;-80
2021/12/15 02:51:09;;;;;;;80.55;39.75;;;;;;;;;;5044355;28;20021;-80
2021/12/15 02:53:35;;;;;;;79.70;39.40;;;;;;;;;;5044680;28;20032;-80
2021/12/15 02:56:01;;;;;;;85.70;40.70;;;;;;;;;;5044021;28;20029;-82
2021/12/15 02:58:33;;;;;;;87.00;40.38;;;;;;;;;;5049149;28;20029;-80
2021/12/15 03:01:05;;;;;;;84.82;39.17;;;;;;;;;;5048357;28;20707;-79
2021/12/15 03:04:25;;;;;;;83.43;40.75;;;;;;;;;;5046979;28;20034;-80
2021/12/15 03:06:30;;;;;;;87.18;40.72;;;;;;;;;;5047086;28;20367;-80
2021/12/15 03:09:26;;;;;;;85.65;40.38;;;;;;;;;;5041678;28;20500;-80
2021/12/15 03:17:20;;;;;;;86.45;40.25;;;;;;;;;;5008548;28;20031;-80
2021/12/15 03:19:46;;;;;;;81.97;39.95;;;;;;;;;;5038105;28;20026;-81
2021/12/15 03:22:12;;;;;;;79.30;38.03;;;;;;;;;;5049712;28;20026;-80
2021/12/15 03:24:38;;;;;;;84.47;39.35;;;;;;;;;;5040689;28;20060;-81
2021/12/15 03:27:12;;;;;;;79.30;38.65;;;;;;;;;;5037158;28;20057;-80
2021/12/15 03:37:42;;;;;;;87.20;39.10;;;;;;;;;;5041255;28;20037;-80
2021/12/15 03:40:08;;;;;;;89.50;40.08;;;;;;;;;;5040701;28;20493;-81
2021/12/15 03:42:40;;;;;;;88.97;38.83;;;;;;;;;;5045239;28;20065;-79
2021/12/15 03:45:13;;;;;;;87.60;39.10;;;;;;;;;;5047280;28;20052;-81
2021/12/15 03:47:41;;;;;;;90.90;41.45;;;;;;;;;;5048031;28;20036;-81
2021/12/15 03:50:09;;;;;;;84.03;38.30;;;;;;;;;;5048785;28;20018;-80
2021/12/15 03:52:35;;;;;;;87.85;40.08;;;;;;;;;;5043569;28;20076;-81
2021/12/15 03:55:01;;;;;;;89.60;41.85;;;;;;;;;;5041199;28;20022;-80
2021/12/15 03:57:27;;;;;;;94.93;40.97;;;;;;;;;;5039190;28;20028;-80
2021/12/15 03:59:56;;;;;;;89.90;40.22;;;;;;;;;;5046253;28;20021;-81
2021/12/15 04:02:23;;;;;;;89.80;38.17;;;;;;;;;;5045911;28;20105;-80
2021/12/15 04:04:50;;;;;;;93.18;39.50;;;;;;;;;;5040896;28;20128;-78
2021/12/15 04:07:17;;;;;;;85.93;38.97;;;;;;;;;;5040712;28;20483;-81
2021/12/15 04:09:43;;;;;;;92.93;40.92;;;;;;;;;;5040959;28;20021;-81
2021/12/15 04:12:10;;;;;;;97.60;41.30;;;;;;;;;;5041977;28;20018;-81
2021/12/15 04:14:44;;;;;;;92.50;40.08;;;;;;;;;;5041968;28;20036;-81
2021/12/15 04:17:26;;;;;;;95.72;41.80;;;;;;;;;;5038874;28;20049;-80
2021/12/15 04:19:53;;;;;;;96.25;41.25;;;;;;;;;;5040711;28;20021;-80
2021/12/15 04:22:19;;;;;;;102.30;39.65;;;;;;;;;;5041235;28;20148;-81
2021/12/15 04:24:45;;;;;;;97.00;41.72;;;;;;;;;;5040136;28;20037;-80
2021/12/15 04:27:11;;;;;;;98.53;40.75;;;;;;;;;;5040281;28;20044;-82
2021/12/15 04:29:39;;;;;;;98.53;40.60;;;;;;;;;;5039749;28;20096;-81
2021/12/15 04:32:12;;;;;;;100.90;41.45;;;;;;;;;;5040015;28;20093;-80
2021/12/15 04:34:38;;;;;;;102.57;40.22;;;;;;;;;;5038214;28;20026;-80
2021/12/15 04:37:04;;;;;;;108.28;43.05;;;;;;;;;;5035502;28;20036;-80
2021/12/15 04:39:30;;;;;;;103.93;42.25;;;;;;;;;;5041738;28;20033;-81
2021/12/15 04:41:57;;;;;;;110.32;42.20;;;;;;;;;;5047521;28;20021;-82
2021/12/15 04:44:24;;;;;;;96.97;41.03;;;;;;;;;;5048629;28;20026;-81
2021/12/15 04:46:58;;;;;;;118.63;43.08;;;;;;;;;;5042332;28;20036;-81
2021/12/15 04:49:24;;;;;;;98.13;39.08;;;;;;;;;;5041636;28;20045;-80
2021/12/15 04:51:51;;;;;;;111.45;42.08;;;;;;;;;;5040008;28;20355;-80
2021/12/15 04:54:18;;;;;;;111.47;42.20;;;;;;;;;;5039667;28;20032;-80
2021/12/15 04:56:44;;;;;;;108.95;42.88;;;;;;;;;;5054387;28;20022;-79
2021/12/15 04:59:10;;;;;;;110.05;41.00;;;;;;;;;;5049187;28;20029;-80
2021/12/15 05:01:36;;;;;;;111.30;42.42;;;;;;;;;;5040928;28;20082;-81
2021/12/15 05:04:03;;;;;;;106.18;41.63;;;;;;;;;;5042940;28;20486;-80
2021/12/15 05:06:29;;;;;;;109.18;41.90;;;;;;;;;;5044842;28;20025;-81
2021/12/15 05:08:55;;;;;;;108.75;41.58;;;;;;;;;;5040879;28;20029;-80
2021/12/15 05:11:22;;;;;;;110.47;41.75;;;;;;;;;;5040814;28;20024;-80
2021/12/15 05:13:48;;;;;;;107.68;40.40;;;;;;;;;;5046503;28;20089;-80
2021/12/15 05:16:16;;;;;;;127.47;42.75;;;;;;;;;;5041014;28;20052;-81
2021/12/15 05:18:43;;;;;;;110.65;41.25;;;;;;;;;;5039810;28;20052;-81
2021/12/15 05:21:10;;;;;;;110.97;40.15;;;;;;;;;;5039316;28;20033;-82
2021/12/15 05:23:37;;;;;;;127.55;42.10;;;;;;;;;;5058592;22;20096;-78
2021/12/15 05:26:03;;;;;;;120.57;42.35;;;;;;;;;;5040565;28;20063;-78
2021/12/15 05:28:30;;;;;;;122.95;42.83;;;;;;;;;;5041644;28;20401;-79
2021/12/15 05:30:56;;;;;;;123.78;42.40;;;;;;;;;;5042391;28;20017;-77
2021/12/15 05:33:24;;;;;;;123.65;42.90;;;;;;;;;;5044639;28;20033;-80
2021/12/15 05:35:50;;;;;;;121.95;44.00;;;;;;;;;;5041693;28;20025;-77
2021/12/15 05:38:17;;;;;;;132.43;44.35;;;;;;;;;;5046693;28;20052;-78
2021/12/15 05:40:44;;;;;;;123.20;42.58;;;;;;;;;;5043061;28;20048;-78
2021/12/15 05:43:10;;;;;;;135.68;45.33;;;;;;;;;;5046409;28;20025;-80
2021/12/15 05:45:38;;;;;;;127.63;44.80;;;;;;;;;;5051711;28;20026;-79
2021/12/15 05:48:05;;;;;;;133.05;45.15;;;;;;;;;;5051857;28;20085;-78
2021/12/15 05:50:32;;;;;;;134.45;47.00;;;;;;;;;;5047103;28;20040;-78
2021/12/15 05:53:00;;;;;;;150.95;49.25;;;;;;;;;;5048028;28;20032;-78
2021/12/15 05:55:26;;;;;;;148.48;50.72;;;;;;;;;;5050713;28;20021;-79
2021/12/15 05:57:52;;;;;;;141.80;48.60;;;;;;;;;;5047269;28;20021;-77
2021/12/15 06:00:21;;;;;;;152.05;49.95;;;;;;;;;;5058162;28;20013;-76
2021/12/15 06:02:47;;;;;;;138.93;49.30;;;;;;;;;;5051775;28;20021;-77
2021/12/15 06:05:14;;;;;;;137.82;48.78;;;;;;;;;;5054515;28;20033;-77
2021/12/15 06:07:41;;;;;;;137.75;49.53;;;;;;;;;;5057989;28;20017;-76
2021/12/15 06:10:09;;;;;;;150.48;51.65;;;;;;;;;;5057106;28;20021;-78
2021/12/15 06:12:35;;;;;;;145.93;48.80;;;;;;;;;;5058131;28;20036;-77
2021/12/15 06:15:02;;;;;;;151.68;52.40;;;;;;;;;;5057327;28;20010;-78
2021/12/15 06:17:28;;;;;;;146.95;51.53;;;;;;;;;;5057026;28;20029;-77
2021/12/15 06:19:55;;;;;;;152.45;52.35;;;;;;;;;;5055882;28;20024;-78
2021/12/15 06:22:26;;;;;;;145.43;51.78;;;;;;;;;;5057254;28;20044;-81
2021/12/15 06:24:53;;;;;;;153.18;53.03;;;;;;;;;;5057652;28;20033;-79
2021/12/15 06:27:19;;;;;;;145.10;51.92;;;;;;;;;;5057571;28;20064;-78
2021/12/15 06:29:46;;;;;;;153.18;53.35;;;;;;;;;;5055049;28;20028;-80
2021/12/15 06:32:13;;;;;;;154.70;54.53;;;;;;;;;;5047391;28;20059;-81
2021/12/15 06:34:39;;;;;;;158.43;55.75;;;;;;;;;;5044007;28;20025;-83
2021/12/15 06:37:05;;;;;;;145.77;53.17;;;;;;;;;;5050734;28;20044;-82
2021/12/15 06:39:32;;;;;;;160.20;54.40;;;;;;;;;;5055911;28;20029;-80
2021/12/15 06:41:59;;;;;;;148.98;53.95;;;;;;;;;;5052884;28;20094;-78
2021/12/15 06:44:25;;;;;;;151.88;53.92;;;;;;;;;;5048237;28;20037;-81
2021/12/15 07:00:27;;;;;;;150.30;54.13;;;;;;;;;;5047088;28;20021;-79
2021/12/15 07:02:53;;;;;;;147.55;54.83;;;;;;;;;;5052850;28;20013;-80
2021/12/15 07:05:20;;;;;;;131.00;51.63;;;;;;;;;;5042532;28;20036;-80
2021/12/15 07:07:47;;;;;;;132.63;52.13;;;;;;;;;;5044025;28;20056;-80
2021/12/15 07:10:15;;;;;;;130.50;52.40;;;;;;;;;;5041022;28;20025;-86
2021/12/15 07:12:41;;;;;;;135.07;52.58;;;;;;;;;;5039005;28;20022;-81
2021/12/15 07:15:08;;;;;;;135.75;52.90;;;;;;;;;;5037716;28;20038;-80
2021/12/15 07:17:36;;;;;;;123.32;52.20;;;;;;;;;;5042126;28;20060;-82
2021/12/15 07:25:01;;;;;;;128.20;50.13;;;;;;;;;;5048824;28;20033;-79
2021/12/15 07:27:27;;;;;;;124.15;49.95;;;;;;;;;;5050549;28;20342;-79
2021/12/15 07:29:53;;;;;;;121.50;49.65;;;;;;;;;;5046745;28;20228;-80
2021/12/15 07:32:19;;;;;;;119.32;49.42;;;;;;;;;;5040918;28;20029;-81
2021/12/15 07:34:45;;;;;;;120.32;49.20;;;;;;;;;;5045497;28;20350;-80
2021/12/15 07:37:11;;;;;;;114.80;48.20;;;;;;;;;;5047390;28;20336;-80
2021/12/15 07:39:38;;;;;;;108.80;47.53;;;;;;;;;;5045121;28;20029;-79
2021/12/15 07:42:11;;;;;;;110.93;48.03;;;;;;;;;;5043756;28;20029;-79
2021/12/15 07:44:37;;;;;;;111.68;48.72;;;;;;;;;;5046218;28;20045;-83
2021/12/15 07:47:04;;;;;;;104.97;44.90;;;;;;;;;;5044130;28;20025;-83
2021/12/15 07:49:30;;;;;;;103.53;47.03;;;;;;;;;;5048061;28;20064;-80
2021/12/15 07:52:02;;;;;;;107.32;47.67;;;;;;;;;;5057206;28;20025;-79
2021/12/15 07:54:30;;;;;;;104.30;45.08;;;;;;;;;;5056361;28;20014;-79
2021/12/15 07:56:56;;;;;;;101.90;45.03;;;;;;;;;;5048954;28;20070;-81
2021/12/15 07:59:22;;;;;;;100.80;44.25;;;;;;;;;;5046100;28;20033;-81
2021/12/15 08:01:51;;;;;;;91.15;43.00;;;;;;;;;;5049077;28;20355;-81
2021/12/15 08:04:17;;;;;;;93.47;42.78;;;;;;;;;;5047152;28;20044;-79
2021/12/15 08:06:45;;;;;;;93.45;43.75;;;;;;;;;;5048256;28;20034;-80
2021/12/15 08:09:12;;;;;;;85.40;40.30;;;;;;;;;;5049367;28;20037;-80
2021/12/15 08:11:40;;;;;;;93.95;41.40;;;;;;;;;;5048087;28;20021;-80
2021/12/15 08:14:06;;;;;;;82.78;40.67;;;;;;;;;;5048488;28;20026;-80
2021/12/15 08:16:32;;;;;;;87.50;41.47;;;;;;;;;;5048968;28;20026;-80
2021/12/15 08:18:58;;;;;;;82.95;41.00;;;;;;;;;;5046874;28;20025;-79
2021/12/15 08:21:25;;;;;;;84.85;40.33;;;;;;;;;;5053653;28;20085;-77
2021/12/15 08:23:51;;;;;;;81.15;39.90;;;;;;;;;;5053005;28;20021;-78
2021/12/15 08:26:17;;;;;;;85.75;41.20;;;;;;;;;;5050147;28;20048;-77
2021/12/15 08:28:43;;;;;;;81.35;38.47;;;;;;;;;;5049662;28;20021;-79
2021/12/15 08:31:09;;;;;;;82.25;40.20;;;;;;;;;;5045977;28;20134;-79
2021/12/15 08:33:35;;;;;;;81.85;39.13;;;;;;;;;;5045131;28;20083;-79
2021/12/15 08:36:07;;;;;;;85.63;40.55;;;;;;;;;;5043874;28;20045;-79
2021/12/15 08:38:35;;;;;;;78.57;39.92;;;;;;;;;;5047540;28;20104;-78
2021/12/15 08:41:02;;;;;;;81.50;38.70;;;;;;;;;;5045914;28;20540;-80
2021/12/15 08:43:28;;;;;;;86.32;39.85;;;;;;;;;;5045574;28;20026;-78
2021/12/15 08:45:57;;;;;;;81.55;38.88;;;;;;;;;;5046430;28;20420;-79
2021/12/15 08:48:23;;;;;;;76.68;39.40;;;;;;;;;;5045968;28;20059;-79
2021/12/15 08:50:49;;;;;;;83.80;39.08;;;;;;;;;;5044934;28;20032;-79
2021/12/15 08:53:16;;;;;;;80.88;38.63;;;;;;;;;;5045326;28;20106;-80
2021/12/15 08:55:44;;;;;;;82.75;39.38;;;;;;;;;;5042018;28;20021;-79
2021/12/15 08:58:12;;;;;;;82.40;39.75;;;;;;;;;;5050051;28;20081;-78
2021/12/15 09:00:42;;;;;;;82.00;39.00;;;;;;;;;;5044838;28;20032;-76
2021/12/15 09:03:08;;;;;;;77.57;37.60;;;;;;;;;;5042610;28;20025;-79
2021/12/15 09:05:35;;;;;;;79.43;38.78;;;;;;;;;;5045786;28;20021;-80
2021/12/15 09:08:01;;;;;;;80.85;39.75;;;;;;;;;;5046738;28;20038;-79
2021/12/15 09:10:29;;;;;;;79.53;38.25;;;;;;;;;;5052123;28;20111;-78
2021/12/15 09:12:56;;;;;;;80.63;39.45;;;;;;;;;;5052824;28;20022;-79
2021/12/15 09:15:22;;;;;;;80.50;38.53;;;;;;;;;;5054593;28;20025;-77
2021/12/15 09:17:48;;;;;;;77.97;38.40;;;;;;;;;;5055670;28;20040;-77
2021/12/15 09:20:16;;;;;;;81.05;39.92;;;;;;;;;;5041389;28;20022;-76
2021/12/15 09:22:42;;;;;;;86.05;39.33;;;;;;;;;;5056438;28;20037;-78
2021/12/15 09:25:10;;;;;;;80.25;38.78;;;;;;;;;;5056686;28;20056;-76
2021/12/15 09:27:36;;;;;;;79.47;38.78;;;;;;;;;;5057307;28;20044;-77
2021/12/15 09:30:05;;;;;;;87.97;40.33;;;;;;;;;;5053942;28;20022;-78
2021/12/15 09:32:31;;;;;;;83.38;39.80;;;;;;;;;;5045856;28;20067;-80
2021/12/15 09:34:57;;;;;;;83.88;40.53;;;;;;;;;;5041137;28;20018;-81
2021/12/15 09:37:23;;;;;;;86.82;41.40;;;;;;;;;;5041932;28;20035;-82
2021/12/15 09:39:50;;;;;;;77.28;40.00;;;;;;;;;;5045280;28;20021;-81
2021/12/15 09:42:20;;;;;;;87.38;42.38;;;;;;;;;;5046298;28;20021;-79
2021/12/15 09:44:49;;;;;;;78.70;38.97;;;;;;;;;;5050292;28;20002;-79
2021/12/15 09:47:26;;;;;;;81.70;41.22;;;;;;;;;;5055454;28;20029;-80
2021/12/15 10:03:47;;;;;;;86.35;40.95;;;;;;;;;;5043457;28;20044;-79
2021/12/15 10:11:50;;;;;;;92.47;42.90;;;;;;;;;;5043837;28;20346;-80
2021/12/15 10:19:51;;;;;;;85.40;42.65;;;;;;;;;;5052716;28;20013;-77
2021/12/15 10:22:29;;;;;;;98.28;44.13;;;;;;;;;;5049023;28;20028;-79
2021/12/15 10:25:04;;;;;;;89.75;43.08;;;;;;;;;;5045355;28;20032;-80
2021/12/15 10:27:42;;;;;;;89.45;43.70;;;;;;;;;;5055135;28;20030;-79
2021/12/15 10:30:12;;;;;;;90.65;42.83;;;;;;;;;;5055158;28;20033;-79
2021/12/15 10:32:38;;;;;;;89.40;43.33;;;;;;;;;;5054003;28;20116;-78
2021/12/15 10:35:11;;;;;;;91.88;44.55;;;;;;;;;;5054040;28;20014;-79
2021/12/15 10:37:38;;;;;;;90.93;43.28;;;;;;;;;;5051115;28;20026;-80
2021/12/15 10:40:15;;;;;;;95.90;44.80;;;;;;;;;;5050201;28;20159;-79
2021/12/15 10:42:42;;;;;;;97.03;43.20;;;;;;;;;;5043087;28;20387;-80
2021/12/15 10:45:09;;;;;;;95.18;42.88;;;;;;;;;;5049688;28;20032;-79
2021/12/15 10:47:49;;;;;;;98.75;46.42;;;;;;;;;;5041625;28;20037;-82
2021/12/15 10:50:20;;;;;;;91.90;43.03;;;;;;;;;;5042733;28;20022;-78
2021/12/15 10:52:51;;;;;;;88.93;43.78;;;;;;;;;;5044568;28;20088;-82
2021/12/15 10:55:17;;;;;;;89.13;43.83;;;;;;;;;;5049145;28;20024;-78
2021/12/15 10:57:44;;;;;;;103.72;48.92;;;;;;;;;;5047210;28;20044;-79
2021/12/15 11:00:12;;;;;;;100.45;48.83;;;;;;;;;;5047101;28;20527;-81
2021/12/15 11:02:39;;;;;;;104.38;46.47;;;;;;;;;;5042424;28;20022;-81
2021/12/15 11:05:08;;;;;;;99.40;45.70;;;;;;;;;;5046728;28;20091;-81
2021/12/15 11:07:34;;;;;;;99.45;46.47;;;;;;;;;;5043613;28;20037;-82
2021/12/15 11:10:02;;;;;;;97.55;45.20;;;;;;;;;;5046038;28;20022;-80
2021/12/15 11:12:32;;;;;;;98.25;48.10;;;;;;;;;;5044906;28;20025;-81
2021/12/15 11:15:01;;;;;;;97.57;45.47;;;;;;;;;;5046687;28;20014;-80
2021/12/15 11:17:27;;;;;;;95.88;44.35;;;;;;;;;;5044932;28;20032;-81
2021/12/15 11:19:56;;;;;;;103.63;46.85;;;;;;;;;;5045737;28;20032;-79
2021/12/15 11:22:31;;;;;;;94.25;44.35;;;;;;;;;;5045091;28;20030;-80
2021/12/15 11:24:58;;;;;;;107.18;51.42;;;;;;;;;;5042567;28;20083;-79
2021/12/15 11:27:24;;;;;;;99.80;45.60;;;;;;;;;;5042708;28;20029;-77
2021/12/15 11:29:50;;;;;;;103.07;46.38;;;;;;;;;;5040354;28;20029;-80
2021/12/15 11:32:37;;;;;;;93.88;44.97;;;;;;;;;;5043421;28;20384;-78
2021/12/15 11:35:06;;;;;;;102.35;45.67;;;;;;;;;;5041601;28;20042;-77
2021/12/15 11:37:53;;;;;;;94.82;43.95;;;;;;;;;;5038771;28;20025;-81
2021/12/15 11:40:25;;;;;;;96.85;45.88;;;;;;;;;;5039563;28;20025;-79
2021/12/15 11:42:51;;;;;;;98.78;47.33;;;;;;;;;;5042767;28;20026;-79
2021/12/15 11:45:17;;;;;;;95.72;47.42;;;;;;;;;;5039510;28;20087;-82
2021/12/15 11:47:44;;;;;;;104.18;48.38;;;;;;;;;;5039492;28;20082;-78
2021/12/15 11:50:11;;;;;;;95.03;47.92;;;;;;;;;;5039699;28;20541;-79
2021/12/15 11:52:42;;;;;;;96.90;46.88;;;;;;;;;;5023471;28;20060;-78
2021/12/15 11:55:21;;;;;;;93.95;47.25;;;;;;;;;;5048435;28;20041;-82
2021/12/15 11:57:47;;;;;;;96.20;47.42;;;;;;;;;;5055346;28;20022;-81
2021/12/15 12:00:15;;;;;;;96.45;46.95;;;;;;;;;;5045684;28;20026;-78
2021/12/15 12:02:42;;;;;;;103.05;47.25;;;;;;;;;;5039818;28;20049;-79
2021/12/15 12:05:10;;;;;;;89.18;43.65;;;;;;;;;;5044552;28;20032;-81
2021/12/15 12:07:42;;;;;;;93.38;45.97;;;;;;;;;;5043291;28;20029;-79
2021/12/15 12:10:17;;;;;;;99.22;47.83;;;;;;;;;;5044545;28;20025;-77
2021/12/15 12:12:57;;;;;;;102.50;47.45;;;;;;;;;;5042841;28;20022;-79
2021/12/15 12:15:25;;;;;;;103.25;47.35;;;;;;;;;;5042857;28;20022;-78
2021/12/15 12:17:52;;;;;;;96.18;46.95;;;;;;;;;;5041229;28;20038;-78
2021/12/15 12:20:20;;;;;;;93.05;45.70;;;;;;;;;;5048821;28;20056;-79
2021/12/15 12:22:47;;;;;;;95.07;45.92;;;;;;;;;;5047859;28;20080;-79
2021/12/15 12:25:16;;;;;;;88.32;44.97;;;;;;;;;;5043128;28;20481;-79
2021/12/15 12:27:42;;;;;;;89.30;44.97;;;;;;;;;;5041044;28;20021;-79
2021/12/15 12:30:11;;;;;;;90.40;46.65;;;;;;;;;;5041848;28;20025;-78
2021/12/15 12:32:38;;;;;;;89.57;45.90;;;;;;;;;;5041457;28;20032;-78
2021/12/15 12:35:05;;;;;;;98.60;46.25;;;;;;;;;;5048598;28;20025;-77
2021/12/15 12:37:31;;;;;;;94.03;45.20;;;;;;;;;;5051109;28;20066;-81
2021/12/15 12:40:04;;;;;;;88.63;43.33;;;;;;;;;;5059845;28;20025;-81
2021/12/15 12:42:38;;;;;;;94.85;43.88;;;;;;;;;;5060227;28;20013;-82
2021/12/15 12:45:25;;;;;;;90.53;42.92;;;;;;;;;;5059307;28;20077;-78
2021/12/15 12:48:10;;;;;;;87.55;42.50;;;;;;;;;;5059932;28;20017;-84
2021/12/15 12:51:03;;;;;;;79.13;41.75;;;;;;;;;;5060145;28;20033;-84
2021/12/15 12:59:25;;;;;;;94.38;44.45;;;;;;;;;;5035637;28;20041;-80
2021/12/15 13:01:52;;;;;;;88.97;41.38;;;;;;;;;;5018240;28;20033;-79
2021/12/15 13:04:18;;;;;;;84.63;41.13;;;;;;;;;;5021491;28;20037;-80
2021/12/15 13:06:44;;;;;;;76.85;38.03;;;;;;;;;;5022657;28;20034;-81
2021/12/15 13:09:16;;;;;;;77.55;37.53;;;;;;;;;;5069587;22;20041;-82
2021/12/15 13:11:46;;;;;;;79.15;38.70;;;;;;;;;;5058589;28;20013;-79
2021/12/15 13:14:13;;;;;;;73.97;36.55;;;;;;;;;;5055798;28;20010;-83
2021/12/15 13:16:47;;;;;;;68.43;35.85;;;;;;;;;;5053744;28;20045;-84
2021/12/15 13:19:22;;;;;;;67.60;34.72;;;;;;;;;;5052011;28;20026;-82
2021/12/15 13:31:15;;;;;;;72.20;35.40;;;;;;;;;;5048891;28;20069;-83
2021/12/15 13:34:23;;;;;;;67.22;33.45;;;;;;;;;;4969948;29;20027;-82
2021/12/15 13:37:47;;;;;;;63.38;31.98;;;;;;;;;;4933023;29;20028;-83
2021/12/15 13:40:46;;;;;;;64.47;31.80;;;;;;;;;;4896308;29;20024;-82
2021/12/15 13:44:03;;;;;;;56.53;29.75;;;;;;;;;;4847001;29;20022;-81
2021/12/15 13:46:59;;;;;;;59.55;29.23;;;;;;;;;;4846768;29;20037;-83
2021/12/15 13:53:03;;;;;;;63.38;30.70;;;;;;;;;;4984468;28;20061;-84
2021/12/15 13:55:32;;;;;;;62.55;29.30;;;;;;;;;;4971474;28;20042;-85
2021/12/15 13:58:11;;;;;;;57.80;30.20;;;;;;;;;;5015445;28;20064;-82
2021/12/15 14:00:55;;;;;;;61.97;31.02;;;;;;;;;;5031362;28;20025;-83
2021/12/15 14:03:30;;;;;;;92.18;45.50;;;;;;;;;;5046218;28;20033;-83
2021/12/15 14:06:34;;;;;;;88.68;42.30;;;;;;;;;;5006632;28;20112;-81
2021/12/15 14:09:33;;;;;;;70.60;35.35;;;;;;;;;;5028538;28;20091;-82
2021/12/15 14:15:11;;;;;;;59.28;30.30;;;;;;;;;;5028745;28;20037;-82
2021/12/15 14:18:01;;;;;;;66.80;32.97;;;;;;;;;;5017507;28;20446;-81
2021/12/15 14:20:53;;;;;;;67.50;32.42;;;;;;;;;;4984154;28;20053;-82
2021/12/15 14:23:24;;;;;;;60.40;31.05;;;;;;;;;;5031735;28;20033;-81
2021/12/15 14:25:51;;;;;;;62.53;31.80;;;;;;;;;;5038625;28;20036;-80
2021/12/15 14:28:22;;;;;;;63.53;31.10;;;;;;;;;;5033769;28;20022;-82
2021/12/15 14:30:59;;;;;;;62.67;30.33;;;;;;;;;;5049912;28;20032;-82
2021/12/15 14:33:29;;;;;;;56.33;29.80;;;;;;;;;;5035720;28;20021;-81
2021/12/15 14:35:57;;;;;;;58.30;30.08;;;;;;;;;;5056231;28;20021;-81
2021/12/15 14:39:00;;;;;;;59.78;29.10;;;;;;;;;;5057061;28;20025;-80
2021/12/15 14:41:28;;;;;;;58.45;28.98;;;;;;;;;;5046169;28;20021;-81
2021/12/15 14:44:05;;;;;;;55.25;28.10;;;;;;;;;;5033030;28;20030;-83
2021/12/15 14:46:39;;;;;;;50.20;25.25;;;;;;;;;;5044055;28;20101;-83
2021/12/15 14:49:26;;;;;;;48.15;25.52;;;;;;;;;;5026793;28;20026;-83
2021/12/15 14:51:54;;;;;;;49.05;24.17;;;;;;;;;;5029047;28;20029;-81
2021/12/15 14:54:21;;;;;;;45.53;24.80;;;;;;;;;;5043515;28;20029;-81
2021/12/15 14:56:52;;;;;;;47.22;23.67;;;;;;;;;;5047448;28;20036;-81
2021/12/15 14:59:20;;;;;;;48.08;23.95;;;;;;;;;;5044418;28;20041;-83
2021/12/15 15:01:48;;;;;;;44.20;23.92;;;;;;;;;;5050628;28;20029;-82
2021/12/15 15:04:15;;;;;;;47.50;22.95;;;;;;;;;;5049360;28;20025;-82
2021/12/15 15:06:42;;;;;;;44.15;22.95;;;;;;;;;;5048591;28;20017;-82
2021/12/15 15:09:12;;;;;;;46.33;23.00;;;;;;;;;;5031528;28;20339;-82
2021/12/15 15:11:47;;;;;;;42.67;21.58;;;;;;;;;;5045724;28;20546;-82
2021/12/15 15:14:13;;;;;;;45.95;22.92;;;;;;;;;;5027494;28;20079;-81
2021/12/15 15:16:39;;;;;;;36.70;21.27;;;;;;;;;;5045802;28;20025;-81
2021/12/15 15:19:16;;;;;;;44.45;21.33;;;;;;;;;;5047125;28;20072;-80
2021/12/15 15:21:44;;;;;;;42.75;21.30;;;;;;;;;;5056528;28;20053;-79
2021/12/15 15:24:22;;;;;;;37.53;19.70;;;;;;;;;;5056173;28;20021;-78
2021/12/15 15:26:55;;;;;;;44.08;20.92;;;;;;;;;;5037872;28;20016;-77
2021/12/15 15:29:41;;;;;;;43.85;21.25;;;;;;;;;;5035734;28;20474;-80
2021/12/15 15:32:09;;;;;;;39.22;19.02;;;;;;;;;;5052009;28;20055;-80
2021/12/15 15:34:35;;;;;;;47.58;20.38;;;;;;;;;;5044840;28;20108;-81
2021/12/15 15:37:09;;;;;;;44.97;21.40;;;;;;;;;;5046192;28;20021;-82
2021/12/15 15:39:35;;;;;;;42.47;19.90;;;;;;;;;;5029736;28;20029;-82
2021/12/15 15:42:01;;;;;;;38.58;20.13;;;;;;;;;;5030629;28;20033;-80
2021/12/15 15:44:34;;;;;;;37.15;19.30;;;;;;;;;;5045166;28;20119;-81
2021/12/15 15:47:00;;;;;;;40.38;19.88;;;;;;;;;;5047253;28;20052;-80
2021/12/15 15:49:26;;;;;;;40.22;19.55;;;;;;;;;;5048086;28;20029;-81
2021/12/15 15:51:52;;;;;;;40.72;18.02;;;;;;;;;;5047815;28;20032;-80
2021/12/15 15:54:22;;;;;;;40.60;17.08;;;;;;;;;;5044549;28;20026;-82
2021/12/15 15:56:49;;;;;;;40.70;20.75;;;;;;;;;;5029286;28;20151;-83
2021/12/15 15:59:16;;;;;;;34.33;16.15;;;;;;;;;;5048605;28;20025;-82
2021/12/15 16:01:44;;;;;;;39.97;18.45;;;;;;;;;;5049567;28;20057;-83